createdAt,value
2023-02-15T00:02:07.424Z,97697.25
2023-02-15T00:04:51.122Z,97697.21
2023-02-15T00:07:20.109Z,97695.79
2023-02-15T00:09:48.763Z,97697.25
2023-02-15T00:12:17.249Z,97700.01
2023-02-15T00:14:45.407Z,97703.29
2023-02-15T00:17:13.329Z,97706.29
2023-02-15T00:19:41.445Z,97708.91
2023-02-15T00:22:09.683Z,97710.20
2023-02-15T00:24:37.671Z,97710.16
2023-02-15T00:27:05.515Z,97708.27
2023-02-15T00:29:33.334Z,97705.68
2023-02-15T00:32:01.185Z,97709.36
2023-02-15T00:34:29.525Z,97709.56
2023-02-15T00:36:58.299Z,97707.36
2023-02-15T00:39:29.925Z,97710.53
2023-02-15T00:41:57.833Z,97711.05
2023-02-15T00:44:25.705Z,97710.98
2023-02-15T00:46:53.686Z,97707.88
2023-02-15T00:49:22.202Z,97708.59
2023-02-15T00:51:49.991Z,97705.66
2023-02-15T00:54:17.926Z,97706.45
2023-02-15T00:56:45.726Z,97703.66
2023-02-15T00:59:13.643Z,97701.48
2023-02-15T01:01:41.627Z,97704.13
2023-02-15T01:04:09.626Z,97699.23
2023-02-15T01:06:38.018Z,97698.27
2023-02-15T01:09:06.056Z,97698.71
2023-02-15T01:11:33.932Z,97691.79
2023-02-15T01:14:01.756Z,97683.71
2023-02-15T01:16:30.581Z,97685.33
2023-02-15T01:18:58.549Z,97686.64
2023-02-15T01:21:27.805Z,97689.70
2023-02-15T01:23:55.707Z,97687.64
2023-02-15T01:26:23.686Z,97688.48
2023-02-15T01:28:51.486Z,97686.80
2023-02-15T01:31:21.989Z,97686.80
2023-02-15T01:33:50.121Z,97683.07
2023-02-15T01:36:18.412Z,97680.61
2023-02-15T01:38:46.974Z,97678.86
2023-02-15T01:41:24.619Z,97681.30
2023-02-15T01:43:56.768Z,97676.54
2023-02-15T01:46:41.629Z,97673.45
2023-02-15T01:49:16.456Z,97673.07
2023-02-15T01:51:47.155Z,97676.36
2023-02-15T01:54:28.795Z,97670.98
2023-02-15T01:57:04.387Z,97666.52
2023-02-15T01:59:34.681Z,97662.96
2023-02-15T02:02:05.891Z,97662.64
2023-02-15T02:04:48.572Z,97662.15
2023-02-15T02:07:21.082Z,97659.70
2023-02-15T02:09:50.508Z,97661.86
2023-02-15T02:12:19.922Z,97658.23
2023-02-15T02:14:49.311Z,97659.12
2023-02-15T02:17:39.578Z,97653.43
2023-02-15T02:20:41.687Z,97647.89
2023-02-15T02:23:30.873Z,97649.39
2023-02-15T02:26:23.019Z,97647.30
2023-02-15T02:29:13.439Z,97644.79
2023-02-15T02:32:05.196Z,97643.38
2023-02-15T02:34:44.368Z,97639.11
2023-02-15T02:37:29.398Z,97641.27
2023-02-15T02:40:15.067Z,97639.05
2023-02-15T02:42:56.126Z,97641.17
2023-02-15T02:45:29.942Z,97641.98
2023-02-15T02:48:05.156Z,97643.59
2023-02-15T02:50:33.581Z,97647.54
2023-02-15T02:53:02.062Z,97647.36
2023-02-15T02:55:36.899Z,97649.41
2023-02-15T02:58:21.658Z,97655.01
2023-02-15T03:00:57.654Z,97658.77
2023-02-15T03:03:32.474Z,97656.83
2023-02-15T03:06:06.585Z,97657.16
2023-02-15T03:08:41.591Z,97655.73
2023-02-15T03:11:10.131Z,97652.02
2023-02-15T03:13:38.978Z,97648.48
2023-02-15T03:16:25.992Z,97649.73
2023-02-15T03:18:58.851Z,97653.10
2023-02-15T03:21:43.997Z,97655.41
2023-02-15T03:24:18.145Z,97654.30
2023-02-15T03:26:49.280Z,97653.52
2023-02-15T03:29:19.752Z,97656.34
2023-02-15T03:31:56.019Z,97651.69
2023-02-15T03:34:24.624Z,97655.69
2023-02-15T03:37:07.855Z,97656.02
2023-02-15T03:39:52.356Z,97654.79
2023-02-15T03:42:34.499Z,97656.41
2023-02-15T03:45:11.227Z,97661.77
2023-02-15T03:47:45.485Z,97661.70
2023-02-15T03:50:37.206Z,97661.36
2023-02-15T03:53:08.866Z,97661.64
2023-02-15T03:55:37.776Z,97661.72
2023-02-15T03:58:19.867Z,97659.33
2023-02-15T04:01:08.367Z,97662.34
2023-02-15T04:03:54.836Z,97662.77
2023-02-15T04:06:23.624Z,97667.50
2023-02-15T04:09:09.309Z,97671.55
2023-02-15T04:11:37.395Z,97671.43
2023-02-15T04:14:25.315Z,97673.01
2023-02-15T04:16:53.522Z,97670.54
2023-02-15T04:19:40.479Z,97672.39
2023-02-15T04:22:20.626Z,97671.02
2023-02-15T04:25:00.787Z,97670.73
2023-02-15T04:27:29.324Z,97674.02
2023-02-15T04:30:01.273Z,97676.17
2023-02-15T04:32:30.098Z,97677.38
2023-02-15T04:34:59.015Z,97676.92
2023-02-15T04:37:27.682Z,97681.19
2023-02-15T04:39:57.020Z,97684.21
2023-02-15T04:42:26.378Z,97686.33
2023-02-15T04:44:56.174Z,97684.84
2023-02-15T04:47:24.408Z,97683.94
2023-02-15T04:49:52.327Z,97687.17
2023-02-15T04:52:21.420Z,97690.54
2023-02-15T04:54:49.715Z,97689.98
2023-02-15T04:57:19.850Z,97686.15
2023-02-15T04:59:47.838Z,97692.73
2023-02-15T05:02:16.221Z,97690.33
2023-02-15T05:04:44.410Z,97693.25
2023-02-15T05:07:12.620Z,97693.98
2023-02-15T05:09:40.754Z,97697.27
2023-02-15T05:12:08.768Z,97696.13
2023-02-15T05:14:37.107Z,97704.66
2023-02-15T05:17:06.306Z,97706.64
2023-02-15T05:19:34.243Z,97703.16
2023-02-15T05:22:02.139Z,97705.60
2023-02-15T05:24:44.378Z,97708.21
2023-02-15T05:27:24.534Z,97711.59
2023-02-15T05:29:54.140Z,97711.02
2023-02-15T05:32:22.727Z,97709.89
2023-02-15T05:34:51.286Z,97712.42
2023-02-15T05:37:20.820Z,97717.77
2023-02-15T05:39:48.835Z,97719.13
2023-02-15T05:42:17.117Z,97716.71
2023-02-15T05:44:45.360Z,97718.50
2023-02-15T05:47:13.701Z,97722.53
2023-02-15T05:49:42.204Z,97726.50
2023-02-15T05:52:10.172Z,97726.45
2023-02-15T05:54:38.142Z,97725.13
2023-02-15T05:57:06.073Z,97724.31
2023-02-15T05:59:34.361Z,97730.45
2023-02-15T06:02:02.617Z,97727.30
2023-02-15T06:04:30.775Z,97732.27
2023-02-15T06:07:01.752Z,97735.41
2023-02-15T06:09:29.957Z,97734.71
2023-02-15T06:11:58.489Z,97736.23
2023-02-15T06:14:29.850Z,97736.77
2023-02-15T06:16:58.225Z,97743.70
2023-02-15T06:19:26.424Z,97747.71
2023-02-15T06:21:55.159Z,97748.52
2023-02-15T06:24:23.630Z,97746.34
2023-02-15T06:26:51.752Z,97748.91
2023-02-15T06:29:19.856Z,97751.79
2023-02-15T06:31:48.081Z,97750.19
2023-02-15T06:34:17.009Z,97750.89
2023-02-15T06:36:44.921Z,97748.26
2023-02-15T06:39:13.182Z,97747.65
2023-02-15T06:41:41.177Z,97748.94
2023-02-15T06:44:09.097Z,97749.59
2023-02-15T06:46:37.280Z,97749.05
2023-02-15T06:49:05.874Z,97755.90
2023-02-15T06:51:38.328Z,97758.95
2023-02-15T06:54:08.938Z,97761.84
2023-02-15T06:56:39.643Z,97763.36
2023-02-15T06:59:07.556Z,97763.91
2023-02-15T07:01:35.462Z,97761.15
2023-02-15T07:04:03.552Z,97763.02
2023-02-15T07:06:35.313Z,97767.52
2023-02-15T07:09:05.136Z,97763.99
2023-02-15T07:11:50.833Z,97761.28
2023-02-15T07:14:18.860Z,97761.43
2023-02-15T07:16:46.991Z,97761.11
2023-02-15T07:19:14.868Z,97759.71
2023-02-15T07:26:09.971Z,97759.80
2023-02-15T07:29:25.710Z,97763.73
2023-02-15T07:36:02.549Z,97761.05
2023-02-15T07:39:23.100Z,97759.95
2023-02-15T07:41:51.197Z,97759.04
2023-02-15T07:44:19.580Z,97756.59
2023-02-15T07:46:47.754Z,97753.20
2023-02-15T07:49:15.807Z,97754.11
2023-02-15T07:51:43.724Z,97749.22
2023-02-15T07:54:14.025Z,97748.75
2023-02-15T07:56:44.389Z,97744.94
2023-02-15T07:59:21.271Z,97744.49
2023-02-15T08:03:09.018Z,97744.59
2023-02-15T08:06:31.830Z,97742.88
2023-02-15T08:13:34.664Z,97743.27
2023-02-15T08:16:03.792Z,97746.60
2023-02-15T08:19:33.504Z,97746.92
2023-02-15T08:22:19.177Z,97742.56
2023-02-15T08:25:17.816Z,97743.98
2023-02-15T08:28:58.400Z,97739.33
2023-02-15T08:32:37.817Z,97742.96
2023-02-15T08:36:00.780Z,97744.73
2023-02-15T08:39:55.287Z,97742.69
2023-02-15T08:43:19.719Z,97741.23
2023-02-15T08:46:23.392Z,97742.48
2023-02-15T08:49:32.415Z,97733.30
2023-02-15T08:53:02.775Z,97740.92
2023-02-15T08:55:42.134Z,97739.76
2023-02-15T08:58:24.332Z,97739.09
2023-02-15T09:01:00.025Z,97747.04
2023-02-15T09:03:31.692Z,97739.09
2023-02-15T09:06:42.327Z,97740.15
2023-02-15T09:09:42.573Z,97741.65
2023-02-15T09:12:17.426Z,97740.26
2023-02-15T09:14:54.440Z,97737.98
2023-02-15T09:18:12.911Z,97745.25
2023-02-15T09:21:54.859Z,97741.65
2023-02-15T09:25:24.018Z,97739.69
2023-02-15T09:28:19.956Z,97740.88
2023-02-15T09:31:35.287Z,97736.10
2023-02-15T09:35:24.537Z,97735.04
2023-02-15T09:38:59.689Z,97729.09
2023-02-15T09:41:55.187Z,97726.65
2023-02-15T09:45:00.201Z,97724.77
2023-02-15T09:47:48.127Z,97723.91
2023-02-15T09:50:31.233Z,97723.00
2023-02-15T09:53:21.331Z,97721.40
2023-02-15T09:56:11.208Z,97720.64
2023-02-15T09:58:59.166Z,97723.11
2023-02-15T10:01:49.330Z,97717.62
2023-02-15T10:04:51.797Z,97715.40
2023-02-15T10:07:56.123Z,97717.84
2023-02-15T10:10:47.279Z,97713.81
2023-02-15T10:13:31.977Z,97710.82
2023-02-15T10:16:19.281Z,97706.38
2023-02-15T10:18:57.698Z,97702.42
2023-02-15T10:21:53.360Z,97698.45
2023-02-15T10:24:43.254Z,97696.47
2023-02-15T10:27:20.134Z,97695.58
2023-02-15T10:30:10.542Z,97688.41
2023-02-15T10:32:59.996Z,97685.23
2023-02-15T10:35:44.946Z,97685.38
2023-02-15T10:38:33.942Z,97684.73
2023-02-15T10:41:35.391Z,97683.91
2023-02-15T10:44:20.227Z,97678.91
2023-02-15T10:47:12.809Z,97678.66
2023-02-15T10:50:05.161Z,97676.70
2023-02-15T10:52:56.704Z,97671.42
2023-02-15T10:55:45.705Z,97663.95
2023-02-15T10:58:34.561Z,97663.54
2023-02-15T11:01:27.813Z,97667.60
2023-02-15T11:04:36.352Z,97666.85
2023-02-15T11:07:16.926Z,97658.10
2023-02-15T11:09:55.793Z,97662.69
2023-02-15T11:12:28.351Z,97656.11
2023-02-15T11:15:02.905Z,97654.98
2023-02-15T11:17:52.078Z,97651.98
2023-02-15T11:20:30.191Z,97651.39
2023-02-15T11:22:58.870Z,97645.89
2023-02-15T11:25:33.765Z,97643.38
2023-02-15T11:28:05.362Z,97641.97
2023-02-15T11:30:45.399Z,97641.17
2023-02-15T11:33:26.981Z,97638.84
2023-02-15T11:36:04.857Z,97637.63
2023-02-15T11:38:34.416Z,97636.02
2023-02-15T11:41:08.678Z,97634.35
2023-02-15T11:43:44.519Z,97634.32
2023-02-15T11:46:14.218Z,97629.27
2023-02-15T11:48:43.521Z,97631.77
2023-02-15T11:51:17.133Z,97632.20
2023-02-15T11:53:46.210Z,97632.25
2023-02-15T11:56:18.682Z,97630.92
2023-02-15T11:59:02.944Z,97627.58
2023-02-15T12:01:37.851Z,97626.56
2023-02-15T12:04:23.649Z,97625.09
2023-02-15T12:07:03.415Z,97626.09
2023-02-15T12:09:37.263Z,97623.81
2023-02-15T12:12:24.299Z,97623.38
2023-02-15T12:14:55.774Z,97624.34
2023-02-15T12:17:29.975Z,97617.98
2023-02-15T12:20:02.415Z,97618.11
2023-02-15T12:22:37.253Z,97617.06
2023-02-15T12:25:31.037Z,97614.40
2023-02-15T12:27:59.214Z,97614.05
2023-02-15T12:30:37.422Z,97608.91
2023-02-15T12:33:31.109Z,97608.89
2023-02-15T12:36:17.689Z,97606.64
2023-02-15T12:39:04.679Z,97604.81
2023-02-15T12:41:32.931Z,97600.14
2023-02-15T12:44:16.592Z,97601.14
2023-02-15T12:46:57.908Z,97604.00
2023-02-15T12:49:27.257Z,97604.68
2023-02-15T12:51:59.929Z,97602.98
2023-02-15T12:54:43.969Z,97606.61
2023-02-15T12:57:52.061Z,97601.48
2023-02-15T13:00:32.843Z,97601.23
2023-02-15T13:03:01.742Z,97599.83
2023-02-15T13:05:45.148Z,97601.76
2023-02-15T13:08:23.327Z,97601.35
2023-02-15T13:10:58.139Z,97602.13
2023-02-15T13:13:39.529Z,97600.66
2023-02-15T13:16:14.254Z,97600.14
2023-02-15T13:18:46.134Z,97598.20
2023-02-15T13:21:21.528Z,97601.04
2023-02-15T13:23:57.909Z,97600.15
2023-02-15T13:26:31.537Z,97601.45
2023-02-15T13:29:09.627Z,97600.11
2023-02-15T13:31:41.258Z,97596.99
2023-02-15T13:34:18.207Z,97600.71
2023-02-15T13:36:58.428Z,97599.02
2023-02-15T13:40:07.425Z,97596.77
2023-02-15T13:42:49.153Z,97592.65
2023-02-15T13:45:36.511Z,97594.59
2023-02-15T13:48:45.774Z,97595.19
2023-02-15T13:51:40.345Z,97596.45
2023-02-15T13:54:37.306Z,97593.71
2023-02-15T13:57:30.193Z,97593.63
2023-02-15T14:00:28.075Z,97588.20
2023-02-15T14:03:37.869Z,97594.27
2023-02-15T14:06:29.737Z,97593.48
2023-02-15T14:09:32.890Z,97590.34
2023-02-15T14:12:29.167Z,97583.79
2023-02-15T14:15:15.158Z,97582.98
2023-02-15T14:18:10.861Z,97582.59
2023-02-15T14:20:55.655Z,97582.98
2023-02-15T14:23:50.116Z,97586.97
2023-02-15T14:26:33.567Z,97590.25
2023-02-15T14:29:39.772Z,97592.48
2023-02-15T14:32:14.625Z,97593.02
2023-02-15T14:34:51.411Z,97592.75
2023-02-15T14:37:50.443Z,97592.70
2023-02-15T14:41:01.172Z,97591.70
2023-02-15T14:43:51.124Z,97591.20
2023-02-15T14:46:52.407Z,97592.56
2023-02-15T14:49:39.902Z,97594.48
2023-02-15T14:52:12.551Z,97593.94
2023-02-15T14:55:00.972Z,97595.80
2023-02-15T14:57:35.062Z,97591.70
2023-02-15T15:00:26.735Z,97596.38
2023-02-15T15:02:55.529Z,97595.40
2023-02-15T15:05:52.675Z,97596.55
2023-02-15T15:08:29.812Z,97595.57
2023-02-15T15:10:57.736Z,97596.95
2023-02-15T15:13:39.058Z,97592.44
2023-02-15T15:16:26.935Z,97589.91
2023-02-15T15:18:58.064Z,97592.79
2023-02-15T15:21:53.227Z,97588.42
2023-02-15T15:24:54.095Z,97589.82
2023-02-15T15:27:46.487Z,97589.36
2023-02-15T15:30:55.804Z,97586.30
2023-02-15T15:33:57.198Z,97587.44
2023-02-15T15:40:43.071Z,97594.89
2023-02-15T15:43:34.828Z,97591.33
2023-02-15T15:46:32.114Z,97599.40
2023-02-15T15:49:27.713Z,97596.44
2023-02-15T15:51:58.960Z,97601.90
2023-02-15T15:54:28.472Z,97603.50
2023-02-15T15:57:00.652Z,97606.52
2023-02-15T15:59:36.975Z,97610.95
2023-02-15T16:02:18.013Z,97608.52
2023-02-15T16:04:49.836Z,97609.69
2023-02-15T16:07:27.170Z,97618.20
2023-02-15T16:09:58.520Z,97620.50
2023-02-15T16:12:30.400Z,97619.09
2023-02-15T16:14:59.382Z,97623.98
2023-02-15T16:17:34.884Z,97619.61
2023-02-15T16:20:14.964Z,97622.42
2023-02-15T16:22:43.154Z,97624.48
2023-02-15T16:25:32.510Z,97623.27
2023-02-15T16:28:09.935Z,97621.91
2023-02-15T16:30:40.882Z,97621.52
2023-02-15T16:33:12.585Z,97628.70
2023-02-15T16:35:54.302Z,97629.17
2023-02-15T16:38:48.911Z,97632.01
2023-02-15T16:41:24.490Z,97632.20
2023-02-15T16:43:56.775Z,97630.10
2023-02-15T16:46:33.507Z,97631.49
2023-02-15T16:49:03.256Z,97637.08
2023-02-15T16:51:35.937Z,97637.66
2023-02-15T16:54:20.864Z,97636.13
2023-02-15T16:56:52.417Z,97634.83
2023-02-15T16:59:35.707Z,97636.94
2023-02-15T17:02:32.025Z,97635.66
2023-02-15T17:05:18.606Z,97640.27
2023-02-15T17:08:07.217Z,97644.90
2023-02-15T17:10:43.065Z,97641.75
2023-02-15T17:13:17.260Z,97644.21
2023-02-15T17:16:21.376Z,97643.38
2023-02-15T17:18:49.596Z,97646.08
2023-02-15T17:21:21.205Z,97646.59
2023-02-15T17:23:51.846Z,97649.80
2023-02-15T17:26:26.858Z,97647.98
2023-02-15T17:29:23.204Z,97650.54
2023-02-15T17:31:55.835Z,97651.94
2023-02-15T17:34:46.002Z,97649.98
2023-02-15T17:37:24.689Z,97651.60
2023-02-15T17:39:52.764Z,97654.36
2023-02-15T17:42:20.718Z,97653.04
2023-02-15T17:44:49.712Z,97652.48
2023-02-15T17:47:22.205Z,97654.17
2023-02-15T17:49:50.169Z,97649.77
2023-02-15T17:52:18.637Z,97655.55
2023-02-15T17:55:04.547Z,97655.80
2023-02-15T17:57:32.945Z,97658.23
2023-02-15T18:00:15.133Z,97657.26
2023-02-15T18:02:55.541Z,97658.66
2023-02-15T18:05:37.587Z,97661.59
2023-02-15T18:08:25.964Z,97663.92
2023-02-15T18:11:06.392Z,97665.40
2023-02-15T18:13:34.229Z,97663.23
2023-02-15T18:16:02.143Z,97665.34
2023-02-15T18:18:30.150Z,97667.97
2023-02-15T18:20:57.985Z,97668.45
2023-02-15T18:23:26.100Z,97666.77
2023-02-15T18:25:54.151Z,97665.33
2023-02-15T18:28:22.050Z,97666.86
2023-02-15T18:30:49.932Z,97673.89
2023-02-15T18:33:33.168Z,97672.40
2023-02-15T18:36:03.326Z,97673.94
2023-02-15T18:38:31.810Z,97671.40
2023-02-15T18:41:02.832Z,97668.94
2023-02-15T18:43:31.057Z,97674.36
2023-02-15T18:45:58.863Z,97672.08
2023-02-15T18:48:26.758Z,97670.67
2023-02-15T18:50:54.701Z,97670.48
2023-02-15T18:53:23.116Z,97673.33
2023-02-15T18:55:51.436Z,97673.31
2023-02-15T18:58:23.609Z,97675.13
2023-02-15T19:00:52.927Z,97673.94
2023-02-15T19:03:21.098Z,97672.85
2023-02-15T19:05:49.030Z,97674.38
2023-02-15T19:08:24.658Z,97673.19
2023-02-15T19:10:52.729Z,97673.55
2023-02-15T19:13:20.588Z,97673.27
2023-02-15T19:15:48.410Z,97674.59
2023-02-15T19:18:16.915Z,97680.43
2023-02-15T19:20:47.194Z,97679.46
2023-02-15T19:23:22.384Z,97680.34
2023-02-15T19:25:53.620Z,97683.33
2023-02-15T19:28:30.572Z,97682.02
2023-02-15T19:30:58.697Z,97682.60
2023-02-15T19:33:26.910Z,97679.95
2023-02-15T19:35:58.142Z,97682.08
2023-02-15T19:38:32.685Z,97681.13
2023-02-15T19:41:06.383Z,97679.73
2023-02-15T19:43:36.547Z,97677.98
2023-02-15T19:46:05.569Z,97678.68
2023-02-15T19:48:34.681Z,97680.20
2023-02-15T19:51:03.840Z,97680.89
2023-02-15T19:53:31.770Z,97680.80
2023-02-15T19:55:59.937Z,97677.13
2023-02-15T19:58:27.991Z,97679.92
2023-02-15T20:00:55.997Z,97677.97
2023-02-15T20:03:24.079Z,97674.06
2023-02-15T20:05:51.952Z,97669.23
2023-02-15T20:08:23.227Z,97664.37
2023-02-15T20:10:51.250Z,97668.48
2023-02-15T20:13:20.361Z,97664.45
2023-02-15T20:15:50.212Z,97665.16
2023-02-15T20:18:21.105Z,97665.39
2023-02-15T20:20:53.473Z,97668.83
2023-02-15T20:23:27.369Z,97663.46
2023-02-15T20:26:13.279Z,97667.60
2023-02-15T20:28:42.573Z,97668.90
2023-02-15T20:31:15.700Z,97669.65
2023-02-15T20:33:45.220Z,97672.27
2023-02-15T20:36:19.527Z,97667.66
2023-02-15T20:38:48.279Z,97667.97
2023-02-15T20:41:35.760Z,97665.60
2023-02-15T20:44:19.601Z,97662.70
2023-02-15T20:46:49.711Z,97664.20
2023-02-15T20:49:20.255Z,97666.75
2023-02-15T20:51:48.463Z,97661.25
2023-02-15T20:54:21.207Z,97660.69
2023-02-15T20:56:49.843Z,97659.39
2023-02-15T20:59:22.654Z,97658.88
2023-02-15T21:01:53.928Z,97661.89
2023-02-15T21:04:33.313Z,97659.80
2023-02-15T21:07:03.213Z,97659.48
2023-02-15T21:09:31.957Z,97661.39
2023-02-15T21:12:02.600Z,97663.05
2023-02-15T21:14:31.361Z,97662.60
2023-02-15T21:17:00.270Z,97660.88
2023-02-15T21:19:28.707Z,97657.20
2023-02-15T21:22:01.261Z,97657.38
2023-02-15T21:24:31.651Z,97651.02
2023-02-15T21:27:03.631Z,97651.97
2023-02-15T21:29:31.992Z,97646.89
2023-02-15T21:32:02.440Z,97642.84
2023-02-15T21:34:31.347Z,97643.64
2023-02-15T21:37:02.003Z,97638.48
2023-02-15T21:39:37.026Z,97641.85
2023-02-15T21:42:29.674Z,97639.83
2023-02-15T21:45:19.876Z,97639.70
2023-02-15T21:47:51.405Z,97641.23
2023-02-15T21:50:40.118Z,97639.13
2023-02-15T21:53:13.071Z,97635.77
2023-02-15T21:55:41.948Z,97634.52
2023-02-15T21:58:20.362Z,97630.86
2023-02-15T22:00:49.501Z,97636.66
2023-02-15T22:03:18.137Z,97631.55
2023-02-15T22:05:48.133Z,97631.40
2023-02-15T22:08:16.830Z,97633.70
2023-02-15T22:10:45.698Z,97633.34
2023-02-15T22:13:28.342Z,97634.95
2023-02-15T22:16:04.446Z,97633.64
2023-02-15T22:18:48.505Z,97632.75
2023-02-15T22:21:18.039Z,97633.16
2023-02-15T22:23:47.110Z,97631.81
2023-02-15T22:26:24.410Z,97633.48
2023-02-15T22:28:52.521Z,97632.83
2023-02-15T22:31:24.598Z,97633.14
2023-02-15T22:33:54.589Z,97635.92
2023-02-15T22:36:26.178Z,97634.86
2023-02-15T22:38:55.005Z,97629.23
2023-02-15T22:41:28.006Z,97624.23
2023-02-15T22:43:56.734Z,97625.44
2023-02-15T22:46:25.533Z,97625.30
2023-02-15T22:48:53.892Z,97624.73
2023-02-15T22:51:25.403Z,97625.27
2023-02-15T22:53:53.765Z,97624.34
2023-02-15T22:56:27.909Z,97627.27
2023-02-15T22:59:03.069Z,97630.93
2023-02-15T23:01:33.693Z,97631.15
2023-02-15T23:04:03.997Z,97628.75
2023-02-15T23:06:34.677Z,97629.52
2023-02-15T23:09:03.649Z,97628.55
2023-02-15T23:11:31.627Z,97624.94
2023-02-15T23:13:59.647Z,97629.38
2023-02-15T23:16:27.538Z,97628.86
2023-02-15T23:18:55.655Z,97631.39
2023-02-15T23:21:33.407Z,97632.04
2023-02-15T23:24:19.935Z,97630.46
2023-02-15T23:26:49.160Z,97630.48
2023-02-15T23:29:20.607Z,97629.49
2023-02-15T23:31:51.720Z,97626.40
2023-02-15T23:34:29.264Z,97627.13
2023-02-15T23:36:57.992Z,97629.98
2023-02-15T23:39:46.764Z,97626.64
2023-02-15T23:42:21.640Z,97625.27
2023-02-15T23:44:49.493Z,97621.85
2023-02-15T23:47:49.447Z,97621.00
2023-02-15T23:50:21.175Z,97622.52
2023-02-15T23:52:50.515Z,97624.75
2023-02-15T23:55:19.474Z,97623.98
2023-02-15T23:57:47.703Z,97621.62
